createdAt,value
2022-08-05T00:01:28.512Z,90.61
2022-08-05T00:03:57.713Z,90.72
2022-08-05T00:06:32.834Z,90.79
2022-08-05T00:09:00.701Z,91.06
2022-08-05T00:11:35.178Z,91.41
2022-08-05T00:14:13.050Z,91.56
2022-08-05T00:16:52.386Z,91.59
2022-08-05T00:19:07.237Z,91.64
2022-08-05T00:21:37.186Z,91.65
2022-08-05T00:24:10.409Z,91.68
2022-08-05T00:26:38.786Z,91.70
2022-08-05T00:29:08.000Z,91.91
2022-08-05T00:31:53.349Z,92.02
2022-08-05T00:34:56.278Z,92.03
2022-08-05T00:37:11.754Z,92.07
2022-08-05T00:39:14.307Z,92.17
2022-08-05T00:41:51.546Z,92.24
2022-08-05T00:44:17.612Z,92.27
2022-08-05T00:46:46.800Z,92.40
2022-08-05T00:49:20.214Z,92.56
2022-08-05T00:51:51.675Z,92.68
2022-08-05T00:54:21.020Z,92.84
2022-08-05T00:56:51.796Z,92.81
2022-08-05T00:59:21.164Z,92.72
2022-08-05T01:01:51.271Z,92.59
2022-08-05T01:04:26.962Z,92.58
2022-08-05T01:06:55.086Z,92.50
2022-08-05T01:09:24.472Z,92.53
2022-08-05T01:12:01.854Z,92.67
2022-08-05T01:14:56.215Z,92.52
2022-08-05T01:17:40.243Z,92.44
2022-08-05T01:20:43.677Z,92.48
2022-08-05T01:23:53.053Z,92.64
2022-08-05T01:26:50.988Z,92.57
2022-08-05T01:29:31.976Z,92.64
2022-08-05T01:32:06.311Z,92.61
2022-08-05T01:34:45.550Z,92.44
2022-08-05T01:37:32.875Z,92.43
2022-08-05T01:40:04.684Z,92.30
2022-08-05T01:42:33.888Z,92.16
2022-08-05T01:45:04.117Z,92.15
2022-08-05T01:47:39.674Z,92.19
2022-08-05T01:50:28.615Z,92.21
2022-08-05T01:52:59.090Z,92.19
2022-08-05T01:55:29.479Z,92.08
2022-08-05T01:58:12.972Z,92.15
2022-08-05T02:00:31.796Z,92.20
2022-08-05T02:03:31.379Z,92.31
2022-08-05T02:05:59.787Z,92.37
2022-08-05T02:08:31.582Z,92.60
2022-08-05T02:11:12.337Z,92.83
2022-08-05T02:13:54.826Z,93.05
2022-08-05T02:16:52.822Z,93.12
2022-08-05T02:19:34.349Z,93.12
2022-08-05T02:22:25.376Z,93.15
2022-08-05T02:24:46.011Z,93.25
2022-08-05T02:27:18.021Z,93.07
2022-08-05T02:29:58.690Z,92.92
2022-08-05T02:32:24.210Z,92.90
2022-08-05T02:34:54.534Z,92.90
2022-08-05T02:37:25.755Z,92.93
2022-08-05T02:39:55.788Z,92.73
2022-08-05T02:42:28.100Z,93.14
2022-08-05T02:44:57.244Z,93.24
2022-08-05T02:47:58.557Z,93.41
2022-08-05T02:49:59.056Z,93.56
2022-08-05T02:52:31.306Z,93.52
2022-08-05T02:55:05.581Z,93.56
2022-08-05T02:58:10.506Z,93.19
2022-08-05T03:00:05.862Z,93.17
2022-08-05T03:02:39.838Z,93.12
2022-08-05T03:05:10.623Z,93.04
2022-08-05T03:08:06.733Z,92.68
2022-08-05T03:10:15.911Z,92.69
2022-08-05T03:12:47.383Z,92.73
2022-08-05T03:15:19.242Z,92.97
2022-08-05T03:17:49.444Z,92.93
2022-08-05T03:20:21.045Z,92.56
2022-08-05T03:22:50.479Z,92.55
2022-08-05T03:26:02.622Z,92.62
2022-08-05T03:28:00.212Z,92.51
2022-08-05T03:30:33.794Z,92.21
2022-08-05T03:33:05.713Z,92.12
2022-08-05T03:35:40.823Z,91.93
2022-08-05T03:38:08.130Z,92.03
2022-08-05T03:40:45.212Z,91.98
2022-08-05T03:43:58.492Z,91.92
2022-08-05T03:45:57.970Z,91.84
2022-08-05T03:48:22.739Z,91.57
2022-08-05T03:52:37.265Z,91.27
2022-08-05T03:55:54.699Z,91.50
2022-08-05T03:56:51.664Z,91.35
2022-08-05T03:59:46.938Z,91.42
2022-08-05T04:02:01.286Z,91.67
2022-08-05T04:04:31.979Z,91.80
2022-08-05T04:07:01.676Z,91.95
2022-08-05T04:09:36.686Z,91.89
2022-08-05T04:12:24.682Z,91.72
2022-08-05T04:14:39.518Z,91.38
2022-08-05T04:17:09.325Z,91.49
2022-08-05T04:19:54.481Z,91.41
2022-08-05T04:22:20.402Z,90.95
2022-08-05T04:24:52.485Z,90.95
2022-08-05T04:27:42.195Z,90.98
2022-08-05T04:29:53.146Z,91.29
2022-08-05T04:32:30.709Z,91.47
2022-08-05T04:34:53.948Z,91.88
2022-08-05T04:38:00.971Z,92.45
2022-08-05T04:39:56.955Z,93.05
2022-08-05T04:42:26.011Z,93.60
2022-08-05T04:44:56.287Z,93.85
2022-08-05T04:47:26.336Z,93.93
2022-08-05T04:50:01.678Z,94.07
2022-08-05T04:52:33.413Z,93.86
2022-08-05T04:55:14.770Z,94.07
2022-08-05T04:57:37.304Z,94.14
2022-08-05T05:00:06.626Z,94.02
2022-08-05T05:02:43.030Z,94.23
2022-08-05T05:05:16.581Z,94.48
2022-08-05T05:07:45.753Z,94.58
2022-08-05T05:10:13.159Z,94.83
2022-08-05T05:12:43.709Z,95.15
2022-08-05T05:15:13.398Z,94.88
2022-08-05T05:17:56.791Z,95.23
2022-08-05T05:20:17.266Z,94.78
2022-08-05T05:22:49.791Z,94.90
2022-08-05T05:25:19.449Z,95.03
2022-08-05T05:27:53.914Z,95.19
2022-08-05T05:30:29.316Z,95.26
2022-08-05T05:32:55.351Z,95.64
2022-08-05T05:35:25.552Z,95.79
2022-08-05T05:37:59.413Z,95.76
2022-08-05T05:40:29.487Z,94.99
2022-08-05T05:43:00.025Z,94.27
2022-08-05T05:45:31.366Z,94.06
2022-08-05T05:48:06.094Z,93.97
2022-08-05T05:50:33.681Z,93.31
2022-08-05T05:53:03.467Z,93.51
2022-08-05T05:55:52.178Z,93.45
2022-08-05T05:58:07.576Z,93.17
2022-08-05T06:00:39.398Z,93.06
2022-08-05T06:03:40.255Z,92.60
2022-08-05T06:05:43.238Z,92.54
2022-08-05T06:08:15.906Z,92.14
2022-08-05T06:10:52.571Z,92.12
2022-08-05T06:13:19.699Z,92.40
2022-08-05T06:16:30.230Z,92.44
2022-08-05T06:18:31.262Z,92.54
2022-08-05T06:20:54.336Z,92.49
2022-08-05T06:23:24.300Z,92.93
2022-08-05T06:26:13.856Z,93.32
2022-08-05T06:28:28.424Z,93.54
2022-08-05T06:30:59.673Z,93.08
2022-08-05T06:33:33.288Z,93.38
2022-08-05T06:36:07.228Z,93.19
2022-08-05T06:38:35.854Z,92.83
2022-08-05T06:41:04.170Z,92.37
2022-08-05T06:43:58.551Z,92.10
2022-08-05T06:46:06.900Z,91.74
2022-08-05T06:48:54.503Z,91.70
2022-08-05T06:51:10.006Z,91.15
2022-08-05T06:53:40.819Z,90.70
2022-08-05T06:56:11.710Z,90.72
2022-08-05T06:58:43.286Z,90.61
2022-08-05T07:01:14.782Z,90.30
2022-08-05T07:03:52.224Z,89.96
2022-08-05T07:06:23.238Z,89.86
2022-08-05T07:08:55.217Z,89.86
2022-08-05T07:11:25.366Z,89.82
2022-08-05T07:14:15.808Z,89.95
2022-08-05T07:17:58.837Z,89.41
2022-08-05T07:20:10.690Z,89.12
2022-08-05T07:21:59.962Z,88.96
2022-08-05T07:24:25.585Z,88.78
2022-08-05T07:26:57.263Z,88.54
2022-08-05T07:30:28.014Z,88.16
2022-08-05T07:31:57.562Z,88.00
2022-08-05T07:34:28.799Z,87.62
2022-08-05T07:36:58.830Z,87.24
2022-08-05T07:40:26.752Z,87.37
2022-08-05T07:42:13.011Z,87.13
2022-08-05T07:44:31.715Z,86.59
2022-08-05T07:47:02.407Z,85.87
2022-08-05T07:49:33.833Z,85.37
2022-08-05T07:52:06.102Z,85.17
2022-08-05T07:54:38.672Z,84.56
2022-08-05T07:57:50.542Z,84.17
2022-08-05T08:00:00.928Z,84.07
2022-08-05T08:03:15.342Z,83.58
2022-08-05T08:05:03.243Z,83.31
2022-08-05T08:07:39.538Z,82.44
2022-08-05T08:10:05.630Z,81.76
2022-08-05T08:12:49.588Z,80.35
2022-08-05T08:15:09.444Z,79.78
2022-08-05T08:17:39.766Z,79.68
2022-08-05T08:20:43.428Z,79.78
2022-08-05T08:22:44.313Z,79.23
2022-08-05T08:25:16.479Z,78.01
2022-08-05T08:27:47.788Z,77.73
2022-08-05T08:30:27.696Z,77.59
2022-08-05T08:32:49.444Z,77.45
2022-08-05T08:35:20.894Z,76.90
2022-08-05T08:37:54.464Z,76.98
2022-08-05T08:40:24.808Z,77.01
2022-08-05T08:42:54.483Z,76.23
2022-08-05T08:45:29.617Z,75.79
2022-08-05T08:48:11.790Z,75.99
2022-08-05T08:51:22.447Z,76.06
2022-08-05T08:53:11.914Z,75.60
2022-08-05T08:56:04.525Z,75.83
2022-08-05T08:58:12.951Z,76.33
2022-08-05T09:00:44.382Z,76.79
2022-08-05T09:03:15.942Z,76.10
2022-08-05T09:06:08.789Z,76.19
2022-08-05T09:08:18.862Z,76.60
2022-08-05T09:10:47.631Z,76.57
2022-08-05T09:13:17.972Z,76.32
2022-08-05T09:15:49.408Z,76.12
2022-08-05T09:18:19.430Z,76.47
2022-08-05T09:20:51.049Z,76.32
2022-08-05T09:23:22.035Z,75.50
2022-08-05T09:26:02.519Z,75.26
2022-08-05T09:28:32.234Z,74.96
2022-08-05T09:31:22.707Z,74.90
2022-08-05T09:33:51.989Z,74.85
2022-08-05T09:36:27.893Z,74.49
2022-08-05T09:38:59.026Z,74.61
2022-08-05T09:41:33.134Z,74.11
2022-08-05T09:44:00.567Z,74.05
2022-08-05T09:46:35.067Z,74.18
2022-08-05T09:49:07.955Z,74.01
2022-08-05T09:51:41.947Z,73.76
2022-08-05T09:54:11.182Z,73.32
2022-08-05T09:56:40.997Z,73.26
2022-08-05T09:59:17.170Z,73.41
2022-08-05T10:01:49.060Z,73.52
2022-08-05T10:04:29.278Z,73.49
2022-08-05T10:06:59.494Z,73.69
2022-08-05T10:09:30.232Z,73.89
2022-08-05T10:12:30.120Z,73.10
2022-08-05T10:14:42.355Z,73.58
2022-08-05T10:17:37.693Z,73.99
2022-08-05T10:20:04.375Z,74.39
2022-08-05T10:22:30.316Z,74.67
2022-08-05T10:24:54.493Z,74.78
2022-08-05T10:28:13.146Z,74.93
2022-08-05T10:30:41.118Z,74.99
2022-08-05T10:32:54.148Z,74.94
2022-08-05T10:35:03.548Z,75.37
2022-08-05T10:37:40.351Z,75.55
2022-08-05T10:40:18.566Z,74.98
2022-08-05T10:42:46.296Z,75.20
2022-08-05T10:45:24.013Z,74.37
2022-08-05T10:48:31.360Z,74.40
2022-08-05T10:50:35.237Z,74.58
2022-08-05T10:53:00.460Z,74.51
2022-08-05T10:55:32.898Z,74.68
2022-08-05T10:58:11.237Z,74.26
2022-08-05T11:00:45.414Z,74.72
2022-08-05T11:03:23.312Z,75.05
2022-08-05T11:06:14.607Z,74.14
2022-08-05T11:08:39.740Z,74.21
2022-08-05T11:11:44.592Z,74.36
2022-08-05T11:14:07.463Z,74.32
2022-08-05T11:16:55.932Z,73.95
2022-08-05T11:20:10.555Z,73.43
2022-08-05T11:22:01.627Z,73.24
2022-08-05T11:24:41.323Z,72.46
2022-08-05T11:27:50.893Z,72.30
2022-08-05T11:30:05.284Z,72.10
2022-08-05T11:32:35.065Z,71.72
2022-08-05T11:35:06.324Z,71.68
2022-08-05T11:38:36.817Z,71.37
2022-08-05T11:40:19.601Z,70.99
2022-08-05T11:42:51.645Z,70.35
2022-08-05T11:46:15.085Z,69.84
2022-08-05T11:48:11.517Z,69.41
2022-08-05T11:50:42.476Z,69.21
2022-08-05T11:53:12.080Z,69.32
2022-08-05T11:56:00.553Z,69.67
2022-08-05T11:58:37.853Z,68.15
2022-08-05T12:01:12.790Z,68.32
2022-08-05T12:03:56.153Z,68.33
2022-08-05T12:06:25.793Z,68.09
2022-08-05T12:08:58.566Z,68.27
2022-08-05T12:11:40.486Z,68.30
2022-08-05T12:14:10.364Z,68.39
2022-08-05T12:16:45.129Z,68.59
2022-08-05T12:20:27.240Z,68.88
2022-08-05T12:21:50.802Z,68.69
2022-08-05T12:24:21.315Z,68.24
2022-08-05T12:26:53.990Z,68.24
2022-08-05T12:29:24.783Z,68.29
2022-08-05T12:31:55.875Z,68.08
2022-08-05T12:34:36.840Z,68.18
2022-08-05T12:37:17.359Z,68.12
2022-08-05T12:39:48.542Z,67.92
2022-08-05T12:42:18.790Z,67.84
2022-08-05T12:44:50.806Z,67.88
2022-08-05T12:47:30.768Z,67.54
2022-08-05T12:50:02.452Z,67.32
2022-08-05T12:52:38.551Z,66.95
2022-08-05T12:55:04.316Z,66.78
2022-08-05T12:58:38.913Z,67.18
2022-08-05T13:02:01.237Z,67.02
2022-08-05T13:02:47.174Z,66.74
2022-08-05T13:05:19.351Z,67.34
2022-08-05T13:07:59.088Z,67.53
2022-08-05T13:10:30.980Z,67.37
2022-08-05T13:13:03.470Z,66.91
2022-08-05T13:15:35.986Z,67.00
2022-08-05T13:18:06.546Z,66.90
2022-08-05T13:20:40.203Z,66.94
2022-08-05T13:23:08.182Z,65.89
2022-08-05T13:25:52.093Z,66.04
2022-08-05T13:28:11.179Z,65.59
2022-08-05T13:30:42.935Z,64.41
2022-08-05T13:33:14.299Z,64.40
2022-08-05T13:35:51.130Z,64.53
2022-08-05T13:38:31.206Z,64.37
2022-08-05T13:41:00.858Z,64.43
2022-08-05T13:43:44.613Z,63.56
2022-08-05T13:46:01.568Z,62.94
2022-08-05T13:48:57.090Z,62.94
2022-08-05T13:51:13.646Z,63.86
2022-08-05T13:53:47.416Z,63.60
2022-08-05T13:56:18.380Z,62.81
2022-08-05T13:58:52.983Z,62.92
2022-08-05T14:01:18.542Z,63.17
2022-08-05T14:03:50.360Z,63.02
2022-08-05T14:06:26.373Z,63.58
2022-08-05T14:08:51.778Z,63.65
2022-08-05T14:11:22.937Z,63.55
2022-08-05T14:13:54.791Z,63.25
2022-08-05T14:16:24.572Z,62.76
2022-08-05T14:18:54.828Z,63.32
2022-08-05T14:22:08.502Z,63.13
2022-08-05T14:24:00.506Z,62.99
2022-08-05T14:26:36.946Z,63.00
2022-08-05T14:29:02.953Z,62.89
2022-08-05T14:32:02.748Z,62.67
2022-08-05T14:34:05.943Z,62.88
2022-08-05T14:36:38.964Z,62.31
2022-08-05T14:39:10.964Z,61.80
2022-08-05T14:41:52.228Z,61.42
2022-08-05T14:44:20.353Z,61.46
2022-08-05T14:46:42.500Z,61.25
2022-08-05T14:49:14.235Z,61.51
2022-08-05T14:51:45.666Z,62.12
2022-08-05T14:54:28.269Z,61.79
2022-08-05T14:56:47.704Z,61.73
2022-08-05T14:59:18.129Z,61.88
2022-08-05T15:01:50.447Z,62.00
2022-08-05T15:04:20.816Z,61.68
2022-08-05T15:06:52.417Z,61.67
2022-08-05T15:09:51.430Z,61.65
2022-08-05T15:11:57.033Z,61.37
2022-08-05T15:14:34.854Z,61.22
2022-08-05T15:16:58.880Z,61.45
2022-08-05T15:19:29.192Z,61.38
2022-08-05T15:22:01.600Z,61.94
2022-08-05T15:24:31.140Z,62.03
2022-08-05T15:27:00.388Z,61.58
2022-08-05T15:29:30.557Z,61.51
2022-08-05T15:32:03.303Z,61.46
2022-08-05T15:34:34.222Z,61.57
2022-08-05T15:37:07.026Z,61.42
2022-08-05T15:41:01.027Z,61.43
2022-08-05T15:42:54.306Z,61.47
2022-08-05T15:44:42.550Z,61.90
2022-08-05T15:47:13.214Z,61.93
2022-08-05T15:49:56.000Z,61.77
2022-08-05T15:52:16.946Z,61.72
2022-08-05T15:54:45.897Z,60.32
2022-08-05T15:57:15.973Z,58.03
2022-08-05T15:59:46.089Z,55.74
2022-08-05T16:02:27.785Z,54.57
2022-08-05T16:04:47.121Z,54.89
2022-08-05T16:07:16.983Z,54.71
2022-08-05T16:09:48.599Z,54.14
2022-08-05T16:12:19.945Z,54.32
2022-08-05T16:14:50.146Z,54.96
2022-08-05T16:17:19.456Z,55.56
2022-08-05T16:20:05.693Z,56.15
2022-08-05T16:22:24.355Z,56.83
2022-08-05T16:24:54.333Z,57.21
2022-08-05T16:27:32.349Z,57.92
2022-08-05T16:29:56.446Z,58.38
2022-08-05T16:32:29.053Z,58.82
2022-08-05T16:34:59.083Z,58.87
2022-08-05T16:38:13.619Z,59.49
2022-08-05T16:40:06.366Z,59.59
2022-08-05T16:42:36.217Z,60.00
2022-08-05T16:46:04.378Z,60.71
2022-08-05T16:47:48.288Z,60.78
2022-08-05T16:50:13.054Z,61.26
2022-08-05T16:52:46.133Z,61.39
2022-08-05T16:55:16.316Z,61.48
2022-08-05T16:58:00.338Z,61.95
2022-08-05T17:00:26.228Z,61.76
2022-08-05T17:02:49.775Z,61.88
2022-08-05T17:05:21.588Z,62.45
2022-08-05T17:07:54.562Z,62.50
2022-08-05T17:10:26.459Z,62.79
2022-08-05T17:12:56.492Z,63.04
2022-08-05T17:15:29.360Z,63.73
2022-08-05T17:18:00.797Z,64.88
2022-08-05T17:20:31.352Z,65.76
2022-08-05T17:23:01.789Z,66.71
2022-08-05T17:25:39.346Z,67.65
2022-08-05T17:28:04.073Z,68.31
2022-08-05T17:30:32.946Z,68.80
2022-08-05T17:33:04.813Z,69.29
2022-08-05T17:36:09.013Z,69.62
2022-08-05T17:38:08.596Z,69.89
2022-08-05T17:40:38.809Z,70.10
2022-08-05T17:43:11.078Z,70.36
2022-08-05T17:45:42.840Z,70.70
2022-08-05T17:48:12.639Z,70.81
2022-08-05T17:50:42.583Z,71.03
2022-08-05T17:53:12.657Z,71.17
2022-08-05T17:55:44.238Z,71.29
2022-08-05T17:58:16.108Z,71.50
2022-08-05T18:00:51.058Z,71.73
2022-08-05T18:05:53.589Z,71.82
2022-08-05T18:08:22.384Z,72.08
2022-08-05T18:10:51.684Z,72.26
2022-08-05T18:13:21.540Z,72.45
2022-08-05T18:15:53.244Z,72.78
2022-08-05T18:18:26.364Z,72.98
2022-08-05T18:20:56.006Z,73.13
2022-08-05T18:23:30.115Z,73.29
2022-08-05T18:25:59.537Z,73.49
2022-08-05T18:28:29.455Z,73.90
2022-08-05T18:31:00.291Z,74.48
2022-08-05T18:33:46.590Z,74.90
2022-08-05T18:36:08.045Z,75.14
2022-08-05T18:38:39.447Z,75.33
2022-08-05T18:41:55.277Z,75.50
2022-08-05T18:43:48.734Z,75.47
2022-08-05T18:46:14.192Z,75.36
2022-08-05T18:48:44.026Z,75.41
2022-08-05T18:52:06.302Z,75.55
2022-08-05T18:54:04.025Z,75.60
2022-08-05T18:56:33.913Z,75.52
2022-08-05T18:59:03.960Z,75.44
2022-08-05T19:01:48.134Z,75.43
2022-08-05T19:04:06.360Z,75.63
2022-08-05T19:06:45.298Z,75.69
2022-08-05T19:09:09.957Z,75.75
2022-08-05T19:11:59.849Z,75.72
2022-08-05T19:14:59.489Z,75.71
2022-08-05T19:16:46.808Z,75.80
2022-08-05T19:19:15.015Z,75.98
2022-08-05T19:21:47.366Z,76.13
2022-08-05T19:24:19.272Z,76.06
2022-08-05T19:26:54.534Z,76.11
2022-08-05T19:29:26.698Z,76.02
2022-08-05T19:31:57.493Z,76.00
2022-08-05T19:34:28.236Z,76.02
2022-08-05T19:37:00.102Z,75.88
2022-08-05T19:39:29.979Z,75.81
2022-08-05T19:42:07.927Z,75.82
2022-08-05T19:44:34.407Z,75.98
2022-08-05T19:47:04.514Z,75.95
2022-08-05T19:49:34.716Z,75.97
2022-08-05T19:52:27.316Z,76.10
2022-08-05T19:54:36.905Z,76.30
2022-08-05T19:57:09.351Z,76.57
2022-08-05T20:00:00.547Z,76.83
2022-08-05T20:02:09.938Z,77.13
2022-08-05T20:04:42.853Z,77.50
2022-08-05T20:07:13.421Z,77.66
2022-08-05T20:09:53.579Z,77.71
2022-08-05T20:12:13.827Z,77.76
2022-08-05T20:14:43.256Z,78.02
2022-08-05T20:17:13.802Z,78.27
2022-08-05T20:19:45.208Z,78.47
2022-08-05T20:22:15.304Z,78.67
2022-08-05T20:24:45.587Z,78.64
2022-08-05T20:27:15.884Z,78.84
2022-08-05T20:29:52.274Z,79.08
2022-08-05T20:32:16.335Z,79.33
2022-08-05T20:34:45.850Z,79.53
2022-08-05T20:37:24.106Z,79.74
2022-08-05T20:39:51.513Z,79.96
2022-08-05T20:42:21.796Z,80.15
2022-08-05T20:44:50.437Z,80.44
2022-08-05T20:47:19.376Z,80.77
2022-08-05T20:49:51.483Z,81.05
2022-08-05T20:52:20.970Z,81.35
2022-08-05T20:54:59.719Z,81.66
2022-08-05T20:57:42.060Z,82.10
2022-08-05T21:00:21.093Z,82.72
2022-08-05T21:02:26.809Z,83.24
2022-08-05T21:04:58.300Z,83.70
2022-08-05T21:07:50.998Z,83.98
2022-08-05T21:10:02.688Z,84.06
2022-08-05T21:12:33.153Z,84.21
2022-08-05T21:15:03.407Z,84.30
2022-08-05T21:17:33.031Z,84.36
2022-08-05T21:20:07.344Z,84.51
2022-08-05T21:22:37.029Z,84.65
2022-08-05T21:25:09.069Z,84.86
2022-08-05T21:27:39.869Z,85.14
2022-08-05T21:30:17.516Z,85.22
2022-08-05T21:32:45.036Z,85.39
2022-08-05T21:35:18.385Z,85.54
2022-08-05T21:37:52.669Z,85.69
2022-08-05T21:40:16.914Z,85.81
2022-08-05T21:42:47.197Z,85.88
2022-08-05T21:45:26.490Z,86.11
2022-08-05T21:47:55.798Z,86.28
2022-08-05T21:50:20.010Z,86.24
2022-08-05T21:52:52.276Z,86.13
2022-08-05T21:56:04.220Z,86.13
2022-08-05T21:57:53.907Z,86.21
2022-08-05T22:00:24.571Z,86.44
2022-08-05T22:02:55.095Z,86.79
2022-08-05T22:05:27.362Z,86.92
2022-08-05T22:07:59.046Z,86.90
2022-08-05T22:10:27.843Z,86.90
2022-08-05T22:14:06.627Z,86.80
2022-08-05T22:16:02.755Z,86.88
2022-08-05T22:18:02.862Z,87.12
2022-08-05T22:20:32.118Z,87.42
2022-08-05T22:23:21.344Z,87.62
2022-08-05T22:26:11.934Z,87.82
2022-08-05T22:28:41.941Z,87.95
2022-08-05T22:31:13.295Z,88.27
2022-08-05T22:33:58.003Z,88.27
2022-08-05T22:36:15.965Z,88.36
2022-08-05T22:38:48.626Z,88.19
2022-08-05T22:42:05.605Z,88.26
2022-08-05T22:43:53.207Z,88.18
2022-08-05T22:46:23.522Z,87.95
2022-08-05T22:48:54.033Z,87.59
2022-08-05T22:52:02.922Z,87.29
2022-08-05T22:53:55.161Z,87.15
2022-08-05T22:56:30.558Z,86.88
2022-08-05T22:58:57.048Z,86.61
2022-08-05T23:02:04.688Z,86.30
2022-08-05T23:03:59.625Z,85.87
2022-08-05T23:06:29.882Z,85.67
2022-08-05T23:09:27.722Z,85.52
2022-08-05T23:11:33.554Z,85.32
2022-08-05T23:14:03.583Z,85.14
2022-08-05T23:16:52.742Z,84.88
2022-08-05T23:19:25.881Z,84.93
2022-08-05T23:21:55.047Z,84.90
2022-08-05T23:24:24.650Z,84.74
2022-08-05T23:26:54.141Z,84.67
2022-08-05T23:29:24.431Z,84.77
2022-08-05T23:31:56.487Z,84.78
2022-08-05T23:34:26.576Z,84.81
2022-08-05T23:36:56.492Z,84.82
2022-08-05T23:39:32.443Z,84.71
2022-08-05T23:42:00.694Z,84.80
2022-08-05T23:44:32.206Z,84.87
2022-08-05T23:47:02.619Z,84.84
2022-08-05T23:49:33.854Z,84.91
2022-08-05T23:52:25.148Z,85.09
2022-08-05T23:54:55.696Z,84.95
2022-08-05T23:57:28.349Z,84.98
